Meteo Giornale » Osservazioni meteo Tajikistan » Dushanbe
ore: 05:00 - Osservazioni Meteo Dushanbe
Lat. 38° 33' N Lon. 68° 47' E Alt. 803 metri s.l.m.
21 °C
Sereno
Temp. 24 Ore
21 °C
38 °C
Nord
7.2 Km/h
Dew point 10 °C
Umidità 49 %
Visibilità 10 Km
Il sole sorge alle ore 05:54
Il sole tramonta alle ore 18:55
| Data e Ora | Cielo e Fenomeni | T °C | DP °C | Um. % | Pres. hPa | Vis. km | Vento km/h | |
|---|---|---|---|---|---|---|---|---|
| Oggi h: 05:00 | Sereno | 21 | 10 | 49 | 1010 | 10 | N 7.2 | |
| Oggi h: 04:30 | Sereno | 24 | 8 | 35 | 1010 | 10 | N 3.6 | |
| Oggi h: 04:00 | Sereno | 23 | 9 | 40 | 1009 | 10 | E/NE 10.8 | |
| Oggi h: 03:30 | Sereno | 22 | 10 | 46 | 1010 | 9 | N 7.2 | |
| Oggi h: 03:00 | Sereno | 22 | 10 | 46 | 1010 | 9 | N 3.6 | |
| Oggi h: 02:30 | Sereno | 24 | 10 | 41 | 1010 | 8 | N 3.6 | |
| Oggi h: 02:00 | Sereno | 23 | 11 | 46 | 1010 | 9 | E 10.8 | |
| Oggi h: 01:30 | Sereno | 24 | 11 | 43 | 1010 | 8 | N 7.2 | |
| Oggi h: 01:00 | Sereno | 24 | 11 | 43 | 1010 | 7 | N 7.2 | |
| Oggi h: 00:30 | Sereno | 24 | 11 | 43 | 1010 | 7 | E 10.8 | |
| Oggi h: 00:00 | Sereno | 24 | 11 | 43 | 1010 | 8 | N 7.2 | |
| Ieri h: 23:30 | Sereno | 25 | 11 | 41 | 1010 | 7 | N 7.2 | |
| Ieri h: 23:00 | Sereno | 25 | 11 | 41 | 1010 | 7 | E 10.8 | |
| Ieri h: 22:30 | Sereno | 29 | 8 | 26 | 1010 | 9 | N 7.2 | |
| Ieri h: 22:00 | Sereno | 28 | 10 | 32 | 1009 | 8 | N 7.2 | |
| Ieri h: 21:30 | Sereno | 28 | 10 | 32 | 1009 | 7 | N 7.2 | |
| Ieri h: 21:00 | Sereno | 29 | 10 | 30 | 1009 | 8 | N 7.2 | |
| Ieri h: 20:30 | Sereno | 30 | 10 | 28 | 1009 | 7 | N 7.2 | |
| Ieri h: 20:00 | Sereno | 30 | 10 | 28 | 1009 | 8 | N 7.2 | |
| Ieri h: 19:30 | Sereno | 31 | 10 | 27 | 1008 | 7 | N 7.2 | |
| Ieri h: 19:00 | Caligine | 32 | 8 | 22 | 1008 | 5 | N 7.2 | |
| Ieri h: 18:30 | Sereno | 34 | 7 | 18 | 1008 | 10 | O 14.4 | |
| Ieri h: 18:00 | Sereno | 35 | 8 | 19 | 1008 | 10 | O 14.4 | |
| Ieri h: 17:30 | Sereno | 36 | 7 | 16 | 1008 | 10 | O 18 | |
| Ieri h: 17:00 | Sereno | 37 | 7 | 15 | 1008 | 10 | O/SO 14.4 | |
| Ieri h: 16:30 | Sereno | 37 | 4 | 12 | 1008 | 10 | SO 10.8 | |
| Ieri h: 16:00 | Sereno | 38 | 4 | 12 | 1008 | 10 | N 7.2 | |
| Ieri h: 15:30 | Sereno | 38 | 4 | 12 | 1008 | 10 | N 7.2 | |
| Ieri h: 15:00 | Sereno | 38 | 4 | 12 | 1008 | 10 | N 7.2 | |
| Ieri h: 14:30 | Sereno | 38 | 4 | 12 | 1009 | 10 | N 3.6 | |
| Ieri h: 14:00 | Sereno | 38 | 4 | 12 | 1009 | 10 | N 7.2 | |
| Ieri h: 13:30 | Sereno | 37 | 5 | 13 | 1010 | 10 | N 7.2 | |
| Ieri h: 13:00 | Sereno | 37 | 5 | 13 | 1010 | 10 | N 7.2 | |
| Ieri h: 12:30 | Sereno | 37 | 6 | 14 | 1010 | 10 | N 7.2 | |
| Ieri h: 12:00 | Sereno | 36 | 5 | 14 | 1011 | 10 | N 7.2 | |
| Ieri h: 11:30 | Sereno | 36 | 4 | 13 | 1011 | 10 | N 7.2 | |
| Ieri h: 11:00 | Sereno | 35 | 6 | 16 | 1011 | 10 | N 7.2 | |
| Ieri h: 10:30 | Sereno | 34 | 9 | 21 | 1012 | 10 | N 7.2 | |
| Ieri h: 10:00 | Sereno | 32 | 9 | 24 | 1012 | 10 | N 7.2 | |
| Ieri h: 09:30 | Sereno | 31 | 9 | 25 | 1012 | 10 | N 3.6 | |
| Ieri h: 09:00 | Sereno | 29 | 10 | 30 | 1012 | 8 | N 7.2 | |
| Ieri h: 08:30 | Sereno | 29 | 11 | 32 | 1012 | 6 | N 3.6 | |
| Ieri h: 08:00 | Sereno | 26 | 10 | 36 | 1012 | 6 | N 3.6 | |
| Ieri h: 07:30 | Sereno | 27 | 8 | 30 | 1012 | 7 | N 3.6 | |
| Ieri h: 07:00 | Sereno | 25 | 8 | 33 | 1011 | 8 | N 7.2 | |
| Ieri h: 06:30 | Sereno | 23 | 7 | 35 | 1011 | 10 | N 7.2 | |
| Ieri h: 06:00 | Sereno | 23 | 8 | 38 | 1011 | 10 | N 7.2 | |



